sensor_id;sensor_type;location;lat;lon;timestamp;P1;durP1;ratioP1;P2;durP2;ratioP2
54372;SDS011;40271;48.798;10.178;2022-11-20T00:01:07;9.55;;;4.97;;
54372;SDS011;40271;48.798;10.178;2022-11-20T00:03:33;12.07;;;5.13;;
54372;SDS011;40271;48.798;10.178;2022-11-20T00:06:00;8.10;;;4.65;;
54372;SDS011;40271;48.798;10.178;2022-11-20T00:08:26;11.60;;;4.95;;
54372;SDS011;40271;48.798;10.178;2022-11-20T00:10:52;9.88;;;4.70;;
54372;SDS011;40271;48.798;10.178;2022-11-20T00:13:18;9.50;;;4.97;;
54372;SDS011;40271;48.798;10.178;2022-11-20T00:15:44;9.48;;;5.13;;
54372;SDS011;40271;48.798;10.178;2022-11-20T00:18:10;8.10;;;4.05;;
54372;SDS011;40271;48.798;10.178;2022-11-20T00:20:36;8.70;;;4.80;;
54372;SDS011;40271;48.798;10.178;2022-11-20T00:23:02;9.30;;;4.72;;
54372;SDS011;40271;48.798;10.178;2022-11-20T00:25:28;8.05;;;4.60;;
54372;SDS011;40271;48.798;10.178;2022-11-20T00:27:54;10.77;;;5.00;;
54372;SDS011;40271;48.798;10.178;2022-11-20T00:30:20;10.10;;;4.70;;
54372;SDS011;40271;48.798;10.178;2022-11-20T00:32:46;8.38;;;4.15;;
54372;SDS011;40271;48.798;10.178;2022-11-20T00:35:12;8.63;;;4.32;;
54372;SDS011;40271;48.798;10.178;2022-11-20T00:37:38;8.85;;;4.88;;
54372;SDS011;40271;48.798;10.178;2022-11-20T00:40:04;8.68;;;4.70;;
54372;SDS011;40271;48.798;10.178;2022-11-20T00:42:30;7.60;;;4.57;;
54372;SDS011;40271;48.798;10.178;2022-11-20T00:44:57;8.88;;;4.60;;
54372;SDS011;40271;48.798;10.178;2022-11-20T00:47:23;10.57;;;4.93;;
54372;SDS011;40271;48.798;10.178;2022-11-20T00:49:49;9.85;;;5.05;;
54372;SDS011;40271;48.798;10.178;2022-11-20T00:52:15;9.43;;;4.50;;
54372;SDS011;40271;48.798;10.178;2022-11-20T00:54:41;7.68;;;4.78;;
54372;SDS011;40271;48.798;10.178;2022-11-20T00:57:07;7.60;;;4.40;;
54372;SDS011;40271;48.798;10.178;2022-11-20T00:59:33;10.07;;;4.70;;
54372;SDS011;40271;48.798;10.178;2022-11-20T01:01:59;8.25;;;4.10;;
54372;SDS011;40271;48.798;10.178;2022-11-20T01:04:25;9.43;;;5.03;;
54372;SDS011;40271;48.798;10.178;2022-11-20T01:06:51;9.30;;;4.32;;
54372;SDS011;40271;48.798;10.178;2022-11-20T01:09:17;9.80;;;4.15;;
54372;SDS011;40271;48.798;10.178;2022-11-20T01:11:43;10.98;;;4.55;;
54372;SDS011;40271;48.798;10.178;2022-11-20T01:14:11;8.38;;;4.72;;
54372;SDS011;40271;48.798;10.178;2022-11-20T01:16:38;7.90;;;4.20;;
54372;SDS011;40271;48.798;10.178;2022-11-20T01:19:06;8.50;;;4.35;;
54372;SDS011;40271;48.798;10.178;2022-11-20T01:21:34;7.97;;;4.38;;
54372;SDS011;40271;48.798;10.178;2022-11-20T01:24:00;7.95;;;3.83;;
54372;SDS011;40271;48.798;10.178;2022-11-20T01:26:27;9.02;;;3.92;;
54372;SDS011;40271;48.798;10.178;2022-11-20T01:28:54;6.88;;;3.60;;
54372;SDS011;40271;48.798;10.178;2022-11-20T01:31:21;7.30;;;3.78;;
54372;SDS011;40271;48.798;10.178;2022-11-20T01:33:49;8.32;;;4.05;;
54372;SDS011;40271;48.798;10.178;2022-11-20T01:36:15;6.13;;;3.35;;
54372;SDS011;40271;48.798;10.178;2022-11-20T01:38:42;6.95;;;3.83;;
54372;SDS011;40271;48.798;10.178;2022-11-20T01:41:08;8.70;;;4.00;;
54372;SDS011;40271;48.798;10.178;2022-11-20T01:43:35;6.28;;;3.83;;
54372;SDS011;40271;48.798;10.178;2022-11-20T01:46:19;6.43;;;3.90;;
54372;SDS011;40271;48.798;10.178;2022-11-20T01:51:25;6.38;;;3.53;;
54372;SDS011;40271;48.798;10.178;2022-11-20T01:53:54;8.48;;;3.45;;
54372;SDS011;40271;48.798;10.178;2022-11-20T01:56:22;6.40;;;3.47;;
54372;SDS011;40271;48.798;10.178;2022-11-20T01:58:51;7.45;;;3.30;;
54372;SDS011;40271;48.798;10.178;2022-11-20T02:01:18;6.57;;;3.17;;
54372;SDS011;40271;48.798;10.178;2022-11-20T02:03:44;6.40;;;3.28;;
54372;SDS011;40271;48.798;10.178;2022-11-20T02:08:36;9.77;;;3.22;;
54372;SDS011;40271;48.798;10.178;2022-11-20T02:11:03;6.25;;;3.40;;
54372;SDS011;40271;48.798;10.178;2022-11-20T02:13:29;6.45;;;3.47;;
54372;SDS011;40271;48.798;10.178;2022-11-20T02:16:27;6.75;;;3.20;;
54372;SDS011;40271;48.798;10.178;2022-11-20T02:18:54;6.40;;;3.38;;
54372;SDS011;40271;48.798;10.178;2022-11-20T02:26:18;7.10;;;3.10;;
54372;SDS011;40271;48.798;10.178;2022-11-20T02:28:45;7.75;;;3.00;;
54372;SDS011;40271;48.798;10.178;2022-11-20T02:31:11;5.65;;;2.97;;
54372;SDS011;40271;48.798;10.178;2022-11-20T02:33:37;6.03;;;2.92;;
54372;SDS011;40271;48.798;10.178;2022-11-20T02:36:03;4.55;;;2.67;;
54372;SDS011;40271;48.798;10.178;2022-11-20T02:38:30;5.43;;;2.95;;
54372;SDS011;40271;48.798;10.178;2022-11-20T02:40:56;5.57;;;2.83;;
54372;SDS011;40271;48.798;10.178;2022-11-20T02:43:22;4.40;;;2.92;;
54372;SDS011;40271;48.798;10.178;2022-11-20T02:45:49;5.95;;;2.72;;
54372;SDS011;40271;48.798;10.178;2022-11-20T02:48:15;3.88;;;2.53;;
54372;SDS011;40271;48.798;10.178;2022-11-20T02:50:41;3.15;;;2.20;;
54372;SDS011;40271;48.798;10.178;2022-11-20T02:53:07;4.50;;;2.78;;
54372;SDS011;40271;48.798;10.178;2022-11-20T02:55:33;4.57;;;2.40;;
54372;SDS011;40271;48.798;10.178;2022-11-20T02:57:59;4.43;;;2.42;;
54372;SDS011;40271;48.798;10.178;2022-11-20T03:00:25;5.47;;;2.40;;
54372;SDS011;40271;48.798;10.178;2022-11-20T03:02:51;3.92;;;2.53;;
54372;SDS011;40271;48.798;10.178;2022-11-20T03:05:17;5.88;;;2.80;;
54372;SDS011;40271;48.798;10.178;2022-11-20T03:07:43;5.20;;;2.58;;
54372;SDS011;40271;48.798;10.178;2022-11-20T03:10:09;6.60;;;2.70;;
54372;SDS011;40271;48.798;10.178;2022-11-20T03:12:35;3.97;;;2.35;;
54372;SDS011;40271;48.798;10.178;2022-11-20T03:15:02;4.40;;;2.20;;
54372;SDS011;40271;48.798;10.178;2022-11-20T03:17:28;3.55;;;1.92;;
54372;SDS011;40271;48.798;10.178;2022-11-20T03:19:54;3.10;;;2.17;;
54372;SDS011;40271;48.798;10.178;2022-11-20T03:22:20;6.40;;;2.28;;
54372;SDS011;40271;48.798;10.178;2022-11-20T03:24:46;3.92;;;2.30;;
54372;SDS011;40271;48.798;10.178;2022-11-20T03:27:12;3.90;;;1.92;;
54372;SDS011;40271;48.798;10.178;2022-11-20T03:29:38;3.42;;;2.20;;
54372;SDS011;40271;48.798;10.178;2022-11-20T03:32:04;4.78;;;2.15;;
54372;SDS011;40271;48.798;10.178;2022-11-20T03:34:30;3.60;;;1.95;;
54372;SDS011;40271;48.798;10.178;2022-11-20T03:36:56;2.90;;;1.88;;
54372;SDS011;40271;48.798;10.178;2022-11-20T03:39:22;3.55;;;2.10;;
54372;SDS011;40271;48.798;10.178;2022-11-20T03:41:48;3.58;;;2.13;;
54372;SDS011;40271;48.798;10.178;2022-11-20T03:44:14;3.42;;;2.00;;
54372;SDS011;40271;48.798;10.178;2022-11-20T03:46:40;4.10;;;2.35;;
54372;SDS011;40271;48.798;10.178;2022-11-20T03:49:06;2.42;;;1.73;;
54372;SDS011;40271;48.798;10.178;2022-11-20T03:51:33;2.83;;;1.75;;
54372;SDS011;40271;48.798;10.178;2022-11-20T03:54:01;2.40;;;1.70;;
54372;SDS011;40271;48.798;10.178;2022-11-20T03:56:32;3.28;;;2.03;;
54372;SDS011;40271;48.798;10.178;2022-11-20T04:01:25;2.90;;;1.83;;
54372;SDS011;40271;48.798;10.178;2022-11-20T04:03:52;4.68;;;1.77;;
54372;SDS011;40271;48.798;10.178;2022-11-20T04:06:20;8.70;;;2.28;;
54372;SDS011;40271;48.798;10.178;2022-11-20T04:08:46;3.45;;;1.85;;
54372;SDS011;40271;48.798;10.178;2022-11-20T04:11:13;2.78;;;1.85;;
54372;SDS011;40271;48.798;10.178;2022-11-20T04:13:40;5.03;;;1.90;;
54372;SDS011;40271;48.798;10.178;2022-11-20T04:16:06;4.07;;;2.85;;
54372;SDS011;40271;48.798;10.178;2022-11-20T04:18:33;2.67;;;1.80;;
54372;SDS011;40271;48.798;10.178;2022-11-20T04:20:59;3.55;;;2.13;;
54372;SDS011;40271;48.798;10.178;2022-11-20T04:23:25;3.65;;;1.92;;
54372;SDS011;40271;48.798;10.178;2022-11-20T04:25:51;4.57;;;2.22;;
54372;SDS011;40271;48.798;10.178;2022-11-20T04:28:17;3.58;;;2.30;;
54372;SDS011;40271;48.798;10.178;2022-11-20T04:30:43;3.40;;;2.00;;
54372;SDS011;40271;48.798;10.178;2022-11-20T04:33:10;3.03;;;1.73;;
54372;SDS011;40271;48.798;10.178;2022-11-20T04:35:36;4.18;;;2.30;;
54372;SDS011;40271;48.798;10.178;2022-11-20T04:38:03;5.50;;;2.40;;
54372;SDS011;40271;48.798;10.178;2022-11-20T04:40:29;4.20;;;2.33;;
54372;SDS011;40271;48.798;10.178;2022-11-20T04:42:55;4.30;;;2.45;;
54372;SDS011;40271;48.798;10.178;2022-11-20T04:45:22;3.95;;;2.17;;
54372;SDS011;40271;48.798;10.178;2022-11-20T04:47:48;2.63;;;2.13;;
54372;SDS011;40271;48.798;10.178;2022-11-20T04:50:14;4.47;;;2.05;;
54372;SDS011;40271;48.798;10.178;2022-11-20T04:52:40;3.40;;;2.10;;
54372;SDS011;40271;48.798;10.178;2022-11-20T04:55:06;3.58;;;2.20;;
54372;SDS011;40271;48.798;10.178;2022-11-20T04:57:33;3.30;;;2.00;;
54372;SDS011;40271;48.798;10.178;2022-11-20T04:59:59;3.65;;;2.30;;
54372;SDS011;40271;48.798;10.178;2022-11-20T05:02:25;3.85;;;2.10;;
54372;SDS011;40271;48.798;10.178;2022-11-20T05:04:51;3.53;;;2.17;;
54372;SDS011;40271;48.798;10.178;2022-11-20T05:07:16;4.20;;;2.08;;
54372;SDS011;40271;48.798;10.178;2022-11-20T05:09:42;3.35;;;2.50;;
54372;SDS011;40271;48.798;10.178;2022-11-20T05:12:08;3.60;;;2.25;;
54372;SDS011;40271;48.798;10.178;2022-11-20T05:14:34;4.88;;;2.22;;
54372;SDS011;40271;48.798;10.178;2022-11-20T05:17:01;5.22;;;2.50;;
54372;SDS011;40271;48.798;10.178;2022-11-20T05:19:27;4.47;;;2.65;;
54372;SDS011;40271;48.798;10.178;2022-11-20T05:21:53;5.63;;;2.70;;
54372;SDS011;40271;48.798;10.178;2022-11-20T05:24:19;3.03;;;2.08;;
54372;SDS011;40271;48.798;10.178;2022-11-20T05:26:45;4.72;;;2.60;;
54372;SDS011;40271;48.798;10.178;2022-11-20T05:29:11;4.72;;;2.30;;
54372;SDS011;40271;48.798;10.178;2022-11-20T05:31:38;4.03;;;2.33;;
54372;SDS011;40271;48.798;10.178;2022-11-20T05:34:04;5.38;;;2.35;;
54372;SDS011;40271;48.798;10.178;2022-11-20T05:36:31;3.53;;;2.42;;
54372;SDS011;40271;48.798;10.178;2022-11-20T05:38:57;4.82;;;2.47;;
54372;SDS011;40271;48.798;10.178;2022-11-20T05:41:23;5.47;;;2.60;;
54372;SDS011;40271;48.798;10.178;2022-11-20T05:43:49;5.93;;;2.70;;
54372;SDS011;40271;48.798;10.178;2022-11-20T05:46:16;4.07;;;2.70;;
54372;SDS011;40271;48.798;10.178;2022-11-20T05:48:43;4.95;;;2.42;;
54372;SDS011;40271;48.798;10.178;2022-11-20T05:51:10;3.35;;;2.30;;
54372;SDS011;40271;48.798;10.178;2022-11-20T05:53:37;3.58;;;2.22;;
54372;SDS011;40271;48.798;10.178;2022-11-20T05:56:06;4.95;;;2.20;;
54372;SDS011;40271;48.798;10.178;2022-11-20T05:58:33;4.35;;;2.20;;
54372;SDS011;40271;48.798;10.178;2022-11-20T06:01:06;3.20;;;2.30;;
54372;SDS011;40271;48.798;10.178;2022-11-20T06:03:32;5.90;;;3.80;;
54372;SDS011;40271;48.798;10.178;2022-11-20T06:05:59;11.15;;;5.15;;
54372;SDS011;40271;48.798;10.178;2022-11-20T06:08:25;13.43;;;7.30;;
54372;SDS011;40271;48.798;10.178;2022-11-20T06:10:51;4.57;;;2.90;;
54372;SDS011;40271;48.798;10.178;2022-11-20T06:13:17;4.45;;;2.70;;
54372;SDS011;40271;48.798;10.178;2022-11-20T06:15:48;5.13;;;2.92;;
54372;SDS011;40271;48.798;10.178;2022-11-20T06:20:40;3.13;;;2.10;;
54372;SDS011;40271;48.798;10.178;2022-11-20T06:23:05;2.92;;;2.25;;
54372;SDS011;40271;48.798;10.178;2022-11-20T06:25:31;5.07;;;2.80;;
54372;SDS011;40271;48.798;10.178;2022-11-20T06:27:57;3.58;;;2.30;;
54372;SDS011;40271;48.798;10.178;2022-11-20T06:30:23;4.78;;;2.45;;
54372;SDS011;40271;48.798;10.178;2022-11-20T06:32:49;2.83;;;1.90;;
54372;SDS011;40271;48.798;10.178;2022-11-20T06:35:15;7.63;;;2.67;;
54372;SDS011;40271;48.798;10.178;2022-11-20T06:37:42;3.00;;;2.08;;
54372;SDS011;40271;48.798;10.178;2022-11-20T06:40:08;4.53;;;2.45;;
54372;SDS011;40271;48.798;10.178;2022-11-20T06:42:34;4.82;;;2.10;;
54372;SDS011;40271;48.798;10.178;2022-11-20T06:45:00;3.83;;;2.30;;
54372;SDS011;40271;48.798;10.178;2022-11-20T06:47:26;3.50;;;2.17;;
54372;SDS011;40271;48.798;10.178;2022-11-20T06:49:52;3.28;;;2.00;;
54372;SDS011;40271;48.798;10.178;2022-11-20T06:52:18;3.75;;;2.13;;
54372;SDS011;40271;48.798;10.178;2022-11-20T06:54:44;4.50;;;1.83;;
54372;SDS011;40271;48.798;10.178;2022-11-20T06:57:10;4.22;;;2.10;;
54372;SDS011;40271;48.798;10.178;2022-11-20T06:59:36;3.03;;;2.17;;
54372;SDS011;40271;48.798;10.178;2022-11-20T07:02:02;3.80;;;1.90;;
54372;SDS011;40271;48.798;10.178;2022-11-20T07:04:28;3.70;;;2.38;;
54372;SDS011;40271;48.798;10.178;2022-11-20T07:06:54;4.25;;;2.40;;
54372;SDS011;40271;48.798;10.178;2022-11-20T07:09:20;3.53;;;2.15;;
54372;SDS011;40271;48.798;10.178;2022-11-20T07:11:46;3.45;;;2.22;;
54372;SDS011;40271;48.798;10.178;2022-11-20T07:14:12;3.88;;;2.08;;
54372;SDS011;40271;48.798;10.178;2022-11-20T07:16:38;2.85;;;2.15;;
54372;SDS011;40271;48.798;10.178;2022-11-20T07:19:04;4.25;;;2.60;;
54372;SDS011;40271;48.798;10.178;2022-11-20T07:21:30;4.85;;;2.30;;
54372;SDS011;40271;48.798;10.178;2022-11-20T07:23:56;3.22;;;2.30;;
54372;SDS011;40271;48.798;10.178;2022-11-20T07:26:22;3.80;;;2.30;;
54372;SDS011;40271;48.798;10.178;2022-11-20T07:28:48;3.58;;;2.10;;
54372;SDS011;40271;48.798;10.178;2022-11-20T07:31:14;4.40;;;2.50;;
54372;SDS011;40271;48.798;10.178;2022-11-20T07:33:40;6.55;;;3.60;;
54372;SDS011;40271;48.798;10.178;2022-11-20T07:36:06;7.15;;;3.05;;
54372;SDS011;40271;48.798;10.178;2022-11-20T07:38:32;5.80;;;3.22;;
54372;SDS011;40271;48.798;10.178;2022-11-20T07:40:58;4.93;;;3.25;;
54372;SDS011;40271;48.798;10.178;2022-11-20T07:43:26;5.50;;;2.70;;
54372;SDS011;40271;48.798;10.178;2022-11-20T07:45:54;3.97;;;1.83;;
54372;SDS011;40271;48.798;10.178;2022-11-20T07:48:21;3.25;;;2.30;;
54372;SDS011;40271;48.798;10.178;2022-11-20T07:50:47;3.97;;;2.03;;
54372;SDS011;40271;48.798;10.178;2022-11-20T07:53:13;3.53;;;2.72;;
54372;SDS011;40271;48.798;10.178;2022-11-20T07:55:45;4.07;;;2.92;;
54372;SDS011;40271;48.798;10.178;2022-11-20T07:58:11;5.93;;;3.10;;
54372;SDS011;40271;48.798;10.178;2022-11-20T08:00:38;3.60;;;2.28;;
54372;SDS011;40271;48.798;10.178;2022-11-20T08:03:04;3.50;;;2.55;;
54372;SDS011;40271;48.798;10.178;2022-11-20T08:05:31;8.35;;;3.00;;
54372;SDS011;40271;48.798;10.178;2022-11-20T08:07:57;2.78;;;2.00;;
54372;SDS011;40271;48.798;10.178;2022-11-20T08:10:23;2.60;;;1.80;;
54372;SDS011;40271;48.798;10.178;2022-11-20T08:12:50;4.10;;;1.90;;
54372;SDS011;40271;48.798;10.178;2022-11-20T08:15:35;3.13;;;1.80;;
54372;SDS011;40271;48.798;10.178;2022-11-20T08:18:05;4.70;;;2.17;;
54372;SDS011;40271;48.798;10.178;2022-11-20T08:20:32;2.83;;;1.73;;
54372;SDS011;40271;48.798;10.178;2022-11-20T08:22:59;3.15;;;1.70;;
54372;SDS011;40271;48.798;10.178;2022-11-20T08:25:26;2.70;;;2.00;;
54372;SDS011;40271;48.798;10.178;2022-11-20T08:27:52;2.50;;;1.63;;
54372;SDS011;40271;48.798;10.178;2022-11-20T08:30:18;4.40;;;2.65;;
54372;SDS011;40271;48.798;10.178;2022-11-20T08:32:44;1.80;;;1.50;;
54372;SDS011;40271;48.798;10.178;2022-11-20T08:35:10;2.13;;;1.40;;
54372;SDS011;40271;48.798;10.178;2022-11-20T08:37:36;3.75;;;1.77;;
54372;SDS011;40271;48.798;10.178;2022-11-20T08:40:06;2.80;;;1.60;;
54372;SDS011;40271;48.798;10.178;2022-11-20T08:42:32;2.38;;;1.80;;
54372;SDS011;40271;48.798;10.178;2022-11-20T08:44:58;2.97;;;1.60;;
54372;SDS011;40271;48.798;10.178;2022-11-20T08:47:24;2.17;;;1.70;;
54372;SDS011;40271;48.798;10.178;2022-11-20T08:49:50;1.80;;;1.30;;
54372;SDS011;40271;48.798;10.178;2022-11-20T08:52:16;3.85;;;1.60;;
54372;SDS011;40271;48.798;10.178;2022-11-20T08:54:42;2.20;;;1.30;;
54372;SDS011;40271;48.798;10.178;2022-11-20T08:57:08;2.83;;;1.90;;
54372;SDS011;40271;48.798;10.178;2022-11-20T08:59:34;4.13;;;2.28;;
54372;SDS011;40271;48.798;10.178;2022-11-20T09:02:00;15.18;;;7.13;;
54372;SDS011;40271;48.798;10.178;2022-11-20T09:04:26;6.78;;;2.97;;
54372;SDS011;40271;48.798;10.178;2022-11-20T09:06:52;2.90;;;1.92;;
54372;SDS011;40271;48.798;10.178;2022-11-20T09:09:18;2.17;;;1.63;;
54372;SDS011;40271;48.798;10.178;2022-11-20T09:11:44;2.47;;;1.50;;
54372;SDS011;40271;48.798;10.178;2022-11-20T09:14:10;2.00;;;1.65;;
54372;SDS011;40271;48.798;10.178;2022-11-20T09:16:36;4.85;;;2.70;;
54372;SDS011;40271;48.798;10.178;2022-11-20T09:19:02;2.60;;;1.83;;
54372;SDS011;40271;48.798;10.178;2022-11-20T09:21:28;2.15;;;1.95;;
54372;SDS011;40271;48.798;10.178;2022-11-20T09:23:54;3.63;;;2.38;;
54372;SDS011;40271;48.798;10.178;2022-11-20T09:26:20;2.90;;;1.70;;
54372;SDS011;40271;48.798;10.178;2022-11-20T09:28:46;2.47;;;1.70;;
54372;SDS011;40271;48.798;10.178;2022-11-20T09:31:21;8.02;;;2.80;;
54372;SDS011;40271;48.798;10.178;2022-11-20T09:33:47;2.75;;;1.55;;
54372;SDS011;40271;48.798;10.178;2022-11-20T09:36:14;3.30;;;2.10;;
54372;SDS011;40271;48.798;10.178;2022-11-20T09:38:40;8.77;;;3.45;;
54372;SDS011;40271;48.798;10.178;2022-11-20T09:41:10;3.25;;;1.92;;
54372;SDS011;40271;48.798;10.178;2022-11-20T09:51:25;8.60;;;5.25;;
54372;SDS011;40271;48.798;10.178;2022-11-20T09:54:01;4.03;;;2.30;;
54372;SDS011;40271;48.798;10.178;2022-11-20T09:56:30;5.15;;;3.75;;
54372;SDS011;40271;48.798;10.178;2022-11-20T09:58:59;3.67;;;2.55;;
54372;SDS011;40271;48.798;10.178;2022-11-20T10:01:29;5.45;;;2.90;;
54372;SDS011;40271;48.798;10.178;2022-11-20T10:04:03;2.55;;;1.65;;
54372;SDS011;40271;48.798;10.178;2022-11-20T10:06:34;2.28;;;1.45;;
54372;SDS011;40271;48.798;10.178;2022-11-20T10:12:00;2.42;;;1.77;;
54372;SDS011;40271;48.798;10.178;2022-11-20T10:22:42;1.95;;;1.30;;
54372;SDS011;40271;48.798;10.178;2022-11-20T10:25:18;2.40;;;1.35;;
54372;SDS011;40271;48.798;10.178;2022-11-20T10:30:38;2.40;;;1.10;;
54372;SDS011;40271;48.798;10.178;2022-11-20T10:33:06;1.30;;;1.20;;
54372;SDS011;40271;48.798;10.178;2022-11-20T10:36:39;2.08;;;1.25;;
54372;SDS011;40271;48.798;10.178;2022-11-20T10:38:37;1.25;;;0.98;;
54372;SDS011;40271;48.798;10.178;2022-11-20T10:41:04;1.15;;;0.93;;
54372;SDS011;40271;48.798;10.178;2022-11-20T10:44:01;1.80;;;1.70;;
54372;SDS011;40271;48.798;10.178;2022-11-20T10:46:32;2.53;;;1.73;;
54372;SDS011;40271;48.798;10.178;2022-11-20T10:49:02;2.40;;;1.50;;
54372;SDS011;40271;48.798;10.178;2022-11-20T10:51:44;1.95;;;1.20;;
54372;SDS011;40271;48.798;10.178;2022-11-20T10:56:53;2.22;;;1.38;;
54372;SDS011;40271;48.798;10.178;2022-11-20T11:01:47;1.77;;;1.60;;
54372;SDS011;40271;48.798;10.178;2022-11-20T11:04:21;2.30;;;1.50;;
54372;SDS011;40271;48.798;10.178;2022-11-20T11:06:49;1.80;;;1.52;;
54372;SDS011;40271;48.798;10.178;2022-11-20T11:09:17;2.28;;;1.88;;
54372;SDS011;40271;48.798;10.178;2022-11-20T11:11:45;3.80;;;2.30;;
54372;SDS011;40271;48.798;10.178;2022-11-20T11:14:12;4.10;;;1.52;;
54372;SDS011;40271;48.798;10.178;2022-11-20T11:16:51;3.35;;;2.05;;
54372;SDS011;40271;48.798;10.178;2022-11-20T11:19:18;2.15;;;1.75;;
54372;SDS011;40271;48.798;10.178;2022-11-20T11:21:47;1.88;;;1.50;;
54372;SDS011;40271;48.798;10.178;2022-11-20T11:24:24;3.47;;;2.03;;
54372;SDS011;40271;48.798;10.178;2022-11-20T11:26:55;2.42;;;1.85;;
54372;SDS011;40271;48.798;10.178;2022-11-20T11:29:22;6.40;;;2.50;;
54372;SDS011;40271;48.798;10.178;2022-11-20T11:31:48;3.88;;;1.70;;
54372;SDS011;40271;48.798;10.178;2022-11-20T11:34:16;6.32;;;3.15;;
54372;SDS011;40271;48.798;10.178;2022-11-20T11:36:55;5.40;;;2.58;;
54372;SDS011;40271;48.798;10.178;2022-11-20T11:39:22;15.52;;;7.78;;
54372;SDS011;40271;48.798;10.178;2022-11-20T11:41:49;8.02;;;4.57;;
54372;SDS011;40271;48.798;10.178;2022-11-20T11:47:00;3.65;;;2.10;;
54372;SDS011;40271;48.798;10.178;2022-11-20T11:49:28;3.47;;;1.98;;
54372;SDS011;40271;48.798;10.178;2022-11-20T11:54:48;1.48;;;1.20;;
54372;SDS011;40271;48.798;10.178;2022-11-20T11:59:44;2.20;;;1.65;;
54372;SDS011;40271;48.798;10.178;2022-11-20T12:02:31;0.90;;;0.80;;
54372;SDS011;40271;48.798;10.178;2022-11-20T12:05:00;1.67;;;1.20;;
54372;SDS011;40271;48.798;10.178;2022-11-20T12:07:39;1.10;;;0.90;;
54372;SDS011;40271;48.798;10.178;2022-11-20T12:10:13;1.63;;;1.30;;
54372;SDS011;40271;48.798;10.178;2022-11-20T12:12:41;1.67;;;1.13;;
54372;SDS011;40271;48.798;10.178;2022-11-20T12:15:13;1.92;;;1.42;;
54372;SDS011;40271;48.798;10.178;2022-11-20T12:17:41;1.42;;;0.88;;
54372;SDS011;40271;48.798;10.178;2022-11-20T12:20:11;0.93;;;0.85;;
54372;SDS011;40271;48.798;10.178;2022-11-20T12:22:42;1.70;;;1.27;;
54372;SDS011;40271;48.798;10.178;2022-11-20T12:30:10;2.20;;;1.20;;
54372;SDS011;40271;48.798;10.178;2022-11-20T12:37:47;2.88;;;1.83;;
54372;SDS011;40271;48.798;10.178;2022-11-20T12:53:30;1.60;;;1.50;;
54372;SDS011;40271;48.798;10.178;2022-11-20T12:58:54;2.17;;;1.30;;
54372;SDS011;40271;48.798;10.178;2022-11-20T13:06:49;2.22;;;1.20;;
54372;SDS011;40271;48.798;10.178;2022-11-20T13:09:16;1.90;;;1.50;;
54372;SDS011;40271;48.798;10.178;2022-11-20T13:14:50;1.60;;;1.17;;
54372;SDS011;40271;48.798;10.178;2022-11-20T13:19:53;6.25;;;1.70;;
54372;SDS011;40271;48.798;10.178;2022-11-20T13:22:24;2.10;;;1.60;;
54372;SDS011;40271;48.798;10.178;2022-11-20T13:24:50;2.50;;;1.70;;
54372;SDS011;40271;48.798;10.178;2022-11-20T13:27:18;2.38;;;1.70;;
54372;SDS011;40271;48.798;10.178;2022-11-20T13:29:47;1.92;;;1.35;;
54372;SDS011;40271;48.798;10.178;2022-11-20T13:32:25;3.03;;;1.80;;
54372;SDS011;40271;48.798;10.178;2022-11-20T13:34:58;2.25;;;1.45;;
54372;SDS011;40271;48.798;10.178;2022-11-20T13:37:32;2.40;;;1.33;;
54372;SDS011;40271;48.798;10.178;2022-11-20T13:42:38;2.13;;;1.70;;
54372;SDS011;40271;48.798;10.178;2022-11-20T13:45:09;1.42;;;1.13;;
54372;SDS011;40271;48.798;10.178;2022-11-20T13:47:36;7.82;;;3.25;;
54372;SDS011;40271;48.798;10.178;2022-11-20T13:50:03;5.25;;;2.38;;
54372;SDS011;40271;48.798;10.178;2022-11-20T13:55:12;2.85;;;1.90;;
54372;SDS011;40271;48.798;10.178;2022-11-20T14:00:26;1.45;;;1.20;;
54372;SDS011;40271;48.798;10.178;2022-11-20T14:03:07;2.70;;;1.92;;
54372;SDS011;40271;48.798;10.178;2022-11-20T14:05:38;2.85;;;1.77;;
54372;SDS011;40271;48.798;10.178;2022-11-20T14:08:05;2.30;;;1.40;;
54372;SDS011;40271;48.798;10.178;2022-11-20T14:10:32;2.55;;;1.30;;
54372;SDS011;40271;48.798;10.178;2022-11-20T14:12:58;2.10;;;1.48;;
54372;SDS011;40271;48.798;10.178;2022-11-20T14:15:26;3.20;;;2.30;;
54372;SDS011;40271;48.798;10.178;2022-11-20T14:17:52;1.65;;;1.17;;
54372;SDS011;40271;48.798;10.178;2022-11-20T14:20:18;2.60;;;1.50;;
54372;SDS011;40271;48.798;10.178;2022-11-20T14:22:51;3.00;;;1.92;;
54372;SDS011;40271;48.798;10.178;2022-11-20T14:27:44;3.95;;;1.67;;
54372;SDS011;40271;48.798;10.178;2022-11-20T14:30:15;3.15;;;1.77;;
54372;SDS011;40271;48.798;10.178;2022-11-20T14:32:42;3.70;;;2.30;;
54372;SDS011;40271;48.798;10.178;2022-11-20T14:35:09;6.13;;;2.00;;
54372;SDS011;40271;48.798;10.178;2022-11-20T14:37:37;3.58;;;2.45;;
54372;SDS011;40271;48.798;10.178;2022-11-20T14:42:48;4.05;;;2.17;;
54372;SDS011;40271;48.798;10.178;2022-11-20T14:45:15;4.22;;;2.30;;
54372;SDS011;40271;48.798;10.178;2022-11-20T14:47:41;2.10;;;1.75;;
54372;SDS011;40271;48.798;10.178;2022-11-20T14:50:22;5.53;;;3.40;;
54372;SDS011;40271;48.798;10.178;2022-11-20T14:52:55;4.68;;;2.30;;
54372;SDS011;40271;48.798;10.178;2022-11-20T14:55:55;3.80;;;2.13;;
54372;SDS011;40271;48.798;10.178;2022-11-20T14:58:20;3.20;;;1.85;;
54372;SDS011;40271;48.798;10.178;2022-11-20T15:00:56;4.25;;;2.90;;
54372;SDS011;40271;48.798;10.178;2022-11-20T15:03:30;2.50;;;1.67;;
54372;SDS011;40271;48.798;10.178;2022-11-20T15:05:56;3.47;;;1.52;;
54372;SDS011;40271;48.798;10.178;2022-11-20T15:08:22;2.22;;;1.67;;
54372;SDS011;40271;48.798;10.178;2022-11-20T15:10:48;1.30;;;1.13;;
54372;SDS011;40271;48.798;10.178;2022-11-20T15:15:48;2.30;;;1.60;;
54372;SDS011;40271;48.798;10.178;2022-11-20T15:18:16;2.88;;;1.50;;
54372;SDS011;40271;48.798;10.178;2022-11-20T15:20:42;1.63;;;1.15;;
54372;SDS011;40271;48.798;10.178;2022-11-20T15:23:12;1.95;;;1.20;;
54372;SDS011;40271;48.798;10.178;2022-11-20T15:25:39;2.90;;;1.40;;
54372;SDS011;40271;48.798;10.178;2022-11-20T15:28:09;3.72;;;1.20;;
54372;SDS011;40271;48.798;10.178;2022-11-20T15:30:37;1.55;;;1.10;;
54372;SDS011;40271;48.798;10.178;2022-11-20T15:33:04;3.33;;;1.20;;
54372;SDS011;40271;48.798;10.178;2022-11-20T15:35:30;1.75;;;1.35;;
54372;SDS011;40271;48.798;10.178;2022-11-20T15:37:56;4.03;;;1.80;;
54372;SDS011;40271;48.798;10.178;2022-11-20T15:40:22;3.17;;;1.80;;
54372;SDS011;40271;48.798;10.178;2022-11-20T15:42:48;2.97;;;2.10;;
54372;SDS011;40271;48.798;10.178;2022-11-20T15:47:59;7.85;;;3.90;;
54372;SDS011;40271;48.798;10.178;2022-11-20T15:50:27;6.97;;;2.00;;
54372;SDS011;40271;48.798;10.178;2022-11-20T15:52:54;1.83;;;1.40;;
54372;SDS011;40271;48.798;10.178;2022-11-20T15:55:20;1.67;;;1.10;;
54372;SDS011;40271;48.798;10.178;2022-11-20T15:57:46;3.28;;;2.28;;
54372;SDS011;40271;48.798;10.178;2022-11-20T16:00:13;3.30;;;2.05;;
54372;SDS011;40271;48.798;10.178;2022-11-20T16:02:39;3.90;;;2.65;;
54372;SDS011;40271;48.798;10.178;2022-11-20T16:05:08;2.70;;;1.67;;
54372;SDS011;40271;48.798;10.178;2022-11-20T16:07:35;2.30;;;1.67;;
54372;SDS011;40271;48.798;10.178;2022-11-20T16:10:01;5.07;;;1.95;;
54372;SDS011;40271;48.798;10.178;2022-11-20T16:12:28;3.78;;;2.38;;
54372;SDS011;40271;48.798;10.178;2022-11-20T16:15:13;3.95;;;1.88;;
54372;SDS011;40271;48.798;10.178;2022-11-20T16:17:57;1.42;;;1.33;;
54372;SDS011;40271;48.798;10.178;2022-11-20T16:20:23;3.22;;;2.45;;
54372;SDS011;40271;48.798;10.178;2022-11-20T16:22:49;2.63;;;1.60;;